map of HOF home
HOF - Airport
Location
City:  Hofuf, Saudi Arabia
Near (Alt.):Al-Ahsa
Name:Al-Ahsa International Airport
ICAO:OEAH
IATA:HOF

Details
Type:Airport (Aerodrome, Airfield)
Use:Public/Civil, International (customs port of entry)
Latitude:2517'10"N (25.286111)
Longitude:4929'10"E (49.486111)
Elevation:588 ft (179 m)
Variation:2.74E (WMM2015 magnetic declination)
0.05 annual change
Runways:1
Longest:10039 × 148 ft (3060 × 45 m), paved

Time
Time Zone:UTC+3
Local Time:

Weather
METAR:OEAH 140900Z 18006KT CAVOK 20/M04 Q1017 NOSIG
TAF:OEAH 132300Z 1400/1506 VRB03KT CAVOK
BECMG 1406/1408 18010KT= TAF OEGS 132300Z 1400/1506 22005G15KT CAVOK

Related Locations
Nearby:
Farthest:GMR: 12128 mi / 19518 km
Mangareva [Totegegie], Gambier Islands, PF

Find:

   beyond  
but within

Other Information
Maps:
NOTAMs:
Links:
Sources:

  
flag of Saudi Arabia   

Sectional Chart

Flight Planning
at skyvector.com

Satellite Image

Google Maps Satellite view

 

Copyright © 2004-2017 Karl L. Swartz. All rights reserved.
The Great Circle Mapper name and logo are trademarks of the Great Circle Mapper.
All other trademarks mentioned herein belong to their respective owners.
Please see credits for attibutions and further copyright information.

  Follow gcmap on Facebook Follow gcmap on Twitter Follow gcmap on Google+ GCmap on LinkedIn

hCard Microformat

Geo Microformat